HKKI

Kisumu Airport

Kisumu, Kenya
TAF HKKI 231700Z 2318/2418 09005KT 9999 FEW018CB SCT019 BKN080 BECMG 2408/2411 21010KT BKN024 TEMPO 2414/2418 VRB10KT -TS FEW020CB BKN021
Issued Valid From Valid To
Apr-23 @ 17:00 UTC
(6 hours ago)
Apr-23 @ 18:00 UTC
(5 hours ago)
Apr-24 @ 18:00 UTC
(in 19 hours)
Apr-23 @ 18:00 to Apr-24 @ 08:00
TAF HKKI 231700Z 2318/2418 09005KT 9999 FEW018CB SCT019 BKN080
Wind Visibility Clouds
90° at 5 knots 10,000+ meters
  • Few at 1,800' AGL
  • Scattered at 1,900' AGL
  • Broken at 8,000' AGL
Becoming Apr-24 @ 08:00 to Apr-24 @ 18:00
BECMG 2408/2411 21010KT BKN024
Wind Visibility Clouds
210° at 10 knots 10,000+ meters
  • Broken at 2,400' AGL
Temporary Apr-24 @ 14:00 to Apr-24 @ 18:00
TEMPO 2414/2418 VRB10KT -TS FEW020CB BKN021
Wind Clouds Conditions
Variable at 10 knots
  • Few at 2,000' AGL
  • Broken at 2,100' AGL
  • Light Thunderstorm
TAF HKKI 231700Z 2318/2418 09005KT 9999 FEW018CB SCT019 BKN080 BECMG 2408/2411 21010KT BKN024 TEMPO 2414/2418 VRB10KT -TS FEW020CB BKN021
Issued Apr-23 @ 17:00 UTC
(6 hours ago)
Valid From Apr-23 @ 18:00 UTC
(5 hours ago)
Valid To Apr-24 @ 18:00 UTC
(in 19 hours)
Apr-23 @ 18:00 - Apr-24 @ 08:00
Wind Visibility
90° at 5 knots 10,000+ meters
Clouds
  • Few at 1,800' AGL
  • Scattered at 1,900' AGL
  • Broken at 8,000' AGL
Becoming Apr-24 @ 08:00 - Apr-24 @ 18:00
Wind Visibility
210° at 10 knots 10,000+ meters
Clouds
  • Broken at 2,400' AGL
Temporary Apr-24 @ 14:00 - Apr-24 @ 18:00
Wind
Variable at 10 knots
Clouds
  • Few at 2,000' AGL
  • Broken at 2,100' AGL
Conditions
  • Light Thunderstorm